Kobe Express — JG5504 — position and weather

sailwx.info

Track history (hours):
 
Tides and Currents Weather Stations Pressure Air Temp Water Temp Dewpoint Dewpoint Depression Visibility Wind Speed Wind Dir Waves Ship Positions

Kobe Express

Last reported at 2017-Sep-20 12:36 UTC. Time now 2017-Sep-21 03:09 UTC.
Position N 33°58' E 134°56'.

Length 170 m; draft 6.5 m.

Type: Passenger vessel. MMSI: 431301684.

Date/timePositionNaut miles runAvg speedWind from/ knotsBaromVisibWave heightAir tempDewpointWater temp
2017-Sep-20 12:36N 33°58' E 134°56'221.1
2017-Sep-20 12:29N 34°00' E 134°56'1021.0
2017-Sep-20 12:00N 34°11' E 134°57'1019.8
2017-Sep-20 11:30N 34°20' E 134°59'1020.5
2017-Sep-20 11:01N 34°30' E 135°04'1019.4
2017-Sep-20 10:31N 34°37' E 135°11'4 7.0
2017-Sep-20 10:00N 34°41' E 135°12'0 0.0
2017-Sep-20 09:30N 34°41' E 135°12'0 0.0
2017-Sep-20 09:00N 34°41' E 135°12'0 0.0
2017-Sep-20 08:30N 34°41' E 135°12'0 0.0
2017-Sep-20 08:00N 34°41' E 135°12'0 0.0
2017-Sep-20 07:30N 34°41' E 135°12'0 0.0
2017-Sep-20 07:00N 34°41' E 135°12'0 0.0
2017-Sep-20 06:30N 34°41' E 135°12'0 0.0
2017-Sep-20 06:00N 34°41' E 135°12'0 0.0
2017-Sep-20 05:30N 34°41' E 135°12'0 0.0
2017-Sep-20 05:00N 34°41' E 135°12'0 0.0
2017-Sep-20 04:30N 34°41' E 135°12'0 0.0
2017-Sep-20 04:00N 34°41' E 135°12'0 0.0
2017-Sep-20 03:30N 34°41' E 135°12'0 0.0
2017-Sep-20 03:00N 34°41' E 135°12'0 0.0
2017-Sep-20 02:30N 34°41' E 135°12'0 0.0
2017-Sep-20 02:00N 34°41' E 135°12'0 0.0
2017-Sep-20 01:30N 34°41' E 135°12'0 0.0
2017-Sep-20 01:00N 34°41' E 135°12'0 0.0
2017-Sep-20 00:30N 34°41' E 135°12'0 0.0
2017-Sep-20 00:00N 34°41' E 135°12'0 0.0
2017-Sep-19 23:30N 34°41' E 135°12'0 0.0
2017-Sep-19 23:00N 34°41' E 135°12'0 0.0
2017-Sep-19 22:30N 34°41' E 135°12'1 2.4
2017-Sep-19 22:00N 34°40' E 135°12'918.4
2017-Sep-19 21:30N 34°31' E 135°07'1121.9
2017-Sep-19 21:01N 34°21' E 135°02'1122.2
2017-Sep-19 20:30N 34°11' E 134°58'1122.7
2017-Sep-19 20:00N 33°59' E 134°57'2 0.1
2017-Sep-18 12:30N 33°59' E 134°54'1021.2
2017-Sep-18 12:00N 34°09' E 134°56'1120.4
2017-Sep-18 11:29N 34°20' E 134°59'1020.8
2017-Sep-18 11:00N 34°29' E 135°03'1021.0
2017-Sep-18 10:30N 34°38' E 135°10'4 7.2
2017-Sep-18 10:00N 34°41' E 135°12'0 0.0
2017-Sep-18 09:30N 34°41' E 135°12'0 0.0
2017-Sep-18 09:00N 34°41' E 135°12'0 0.0
2017-Sep-18 08:30N 34°41' E 135°12'0 0.0
2017-Sep-18 08:00N 34°41' E 135°12'0 0.0
2017-Sep-18 07:30N 34°41' E 135°12'0 0.0
2017-Sep-18 07:00N 34°41' E 135°12'0 0.0
2017-Sep-18 06:30N 34°41' E 135°12'0 0.0
2017-Sep-18 06:00N 34°41' E 135°12'0 0.0
2017-Sep-18 05:30N 34°41' E 135°12'0 0.0
2017-Sep-18 05:00N 34°41' E 135°12'0 0.0
2017-Sep-18 04:30N 34°41' E 135°12'0 0.0
2017-Sep-18 04:00N 34°41' E 135°12'0 0.0
2017-Sep-18 03:30N 34°41' E 135°12'0 0.0
2017-Sep-18 03:00N 34°41' E 135°12'0 0.0
2017-Sep-18 02:30N 34°41' E 135°12'0 0.0
2017-Sep-18 02:00N 34°41' E 135°12'0 0.0
2017-Sep-18 01:30N 34°41' E 135°12'0 0.0
2017-Sep-18 01:00N 34°41' E 135°12'0 0.0
2017-Sep-18 00:30N 34°41' E 135°12'0 0.0
2017-Sep-18 00:00N 34°41' E 135°12'510.9
2017-Sep-17 23:30N 34°36' E 135°14'4 6.3
2017-Sep-17 22:48N 34°31' E 135°15'0 0.1
2017-Sep-17 22:30N 34°31' E 135°15'0 0.0
2017-Sep-17 22:00N 34°31' E 135°15'0 0.1
2017-Sep-17 21:24N 34°31' E 135°15'0 0.0
2017-Sep-17 21:00N 34°31' E 135°15'0 0.1
2017-Sep-17 20:30N 34°31' E 135°15'0 0.1
2017-Sep-17 20:00N 34°31' E 135°15'0 0.1
2017-Sep-17 19:30N 34°31' E 135°15'0 0.1
2017-Sep-17 19:00N 34°31' E 135°15'0 0.1
2017-Sep-17 18:30N 34°31' E 135°15'0 0.1
2017-Sep-17 18:00N 34°31' E 135°15'0 0.1
2017-Sep-17 17:30N 34°31' E 135°15'0 0.1
2017-Sep-17 17:00N 34°31' E 135°15'0 0.1
2017-Sep-17 16:30N 34°31' E 135°15'0 0.1
2017-Sep-17 16:00N 34°31' E 135°15'0 0.1
2017-Sep-17 15:30N 34°31' E 135°15'0 0.1
2017-Sep-17 15:00N 34°31' E 135°15'0 0.1
2017-Sep-17 14:30N 34°31' E 135°15'0 0.1
2017-Sep-17 14:00N 34°31' E 135°15'0 0.3
2017-Sep-17 13:30N 34°31' E 135°15'0 0.1
2017-Sep-17 12:58N 34°31' E 135°15'0 0.1
2017-Sep-17 12:30N 34°31' E 135°15'0 0.2
2017-Sep-17 11:59N 34°31' E 135°15'0 0.0
2017-Sep-17 11:30N 34°31' E 135°15'0 0.1
2017-Sep-17 11:00N 34°31' E 135°15'0 0.0
2017-Sep-17 10:30N 34°31' E 135°15'0 0.0
2017-Sep-17 10:00N 34°31' E 135°15'0 0.0
2017-Sep-17 09:30N 34°31' E 135°15'0 0.1
2017-Sep-17 08:58N 34°31' E 135°15'0 0.0
2017-Sep-17 08:29N 34°31' E 135°15'0 0.1
2017-Sep-17 08:00N 34°31' E 135°15'0 0.1
2017-Sep-17 07:30N 34°31' E 135°15'0 0.1
2017-Sep-17 06:59N 34°31' E 135°15'0 0.0
2017-Sep-17 06:29N 34°31' E 135°15'0 0.0
2017-Sep-17 05:59N 34°31' E 135°15'0 0.0
2017-Sep-17 05:28N 34°31' E 135°15'0 0.0
2017-Sep-17 04:59N 34°31' E 135°15'0 0.0
2017-Sep-17 04:29N 34°31' E 135°15'0 0.0
2017-Sep-17 03:59N 34°31' E 135°15'0 0.1
2017-Sep-17 03:29N 34°31' E 135°15'0 0.0
2017-Sep-17 02:59N 34°31' E 135°15'0 0.1
2017-Sep-17 02:29N 34°31' E 135°15'0 0.1
2017-Sep-17 01:52N 34°31' E 135°15'0 0.2
2017-Sep-17 01:29N 34°31' E 135°15'0 0.0
2017-Sep-17 01:00N 34°31' E 135°15'0 0.0
2017-Sep-17 00:29N 34°31' E 135°15'0 0.0
2017-Sep-16 23:59N 34°31' E 135°15'0 0.0
2017-Sep-16 23:29N 34°31' E 135°15'0 0.0
2017-Sep-16 23:00N 34°31' E 135°15'0 0.0
2017-Sep-16 22:30N 34°31' E 135°15'0 0.0
2017-Sep-16 22:00N 34°31' E 135°15'0 0.0
2017-Sep-16 21:30N 34°31' E 135°15'0 0.0
2017-Sep-16 21:00N 34°31' E 135°15'0 0.0
2017-Sep-16 20:30N 34°31' E 135°15'0 0.0
2017-Sep-16 20:00N 34°31' E 135°15'0 0.1
2017-Sep-16 19:30N 34°31' E 135°15'0 0.0
2017-Sep-16 19:00N 34°31' E 135°15'0 0.0
2017-Sep-16 18:30N 34°31' E 135°15'0 0.0
2017-Sep-16 18:00N 34°31' E 135°15'0 0.0
2017-Sep-16 17:30N 34°31' E 135°15'0 0.0
2017-Sep-16 17:00N 34°31' E 135°15'0 0.0
2017-Sep-16 16:30N 34°31' E 135°15'0 0.0
2017-Sep-16 16:00N 34°31' E 135°15'0 0.0
2017-Sep-16 15:30N 34°31' E 135°15'0 0.0
2017-Sep-16 15:00N 34°31' E 135°15'0 0.0
2017-Sep-16 14:30N 34°31' E 135°15'0 0.1
2017-Sep-16 14:00N 34°31' E 135°15'0 0.1
2017-Sep-16 13:30N 34°31' E 135°15'0 0.0
2017-Sep-16 13:00N 34°31' E 135°15'0 0.1
2017-Sep-16 12:30N 34°31' E 135°15'0 0.0
2017-Sep-16 12:00N 34°31' E 135°15'0 0.1
2017-Sep-16 11:30N 34°31' E 135°15'0 0.1
2017-Sep-16 11:00N 34°31' E 135°15'0 0.1
2017-Sep-16 10:30N 34°31' E 135°15'0 0.1
2017-Sep-16 10:00N 34°31' E 135°15'0 0.1
2017-Sep-16 09:30N 34°31' E 135°15'0 0.1
2017-Sep-16 09:00N 34°31' E 135°15'0 0.1
2017-Sep-16 08:30N 34°31' E 135°15'0 0.1
2017-Sep-16 08:00N 34°31' E 135°15'0 0.0
2017-Sep-16 07:30N 34°31' E 135°15'0 0.1
2017-Sep-16 07:00N 34°31' E 135°15'3 5.2
2017-Sep-16 06:30N 34°34' E 135°14'714.2
2017-Sep-16 06:00N 34°41' E 135°12'0 0.4
2017-Sep-16 05:30N 34°41' E 135°12'0 0.0
2017-Sep-16 05:00N 34°41' E 135°12'0 0.0
2017-Sep-16 04:30N 34°41' E 135°12'0 0.0
2017-Sep-16 04:00N 34°41' E 135°12'0 0.0
2017-Sep-16 03:30N 34°41' E 135°12'0 0.0
2017-Sep-16 03:00N 34°41' E 135°12'0 0.0
2017-Sep-16 02:30N 34°41' E 135°12'0 0.0
2017-Sep-16 02:00N 34°41' E 135°12'0 0.0
2017-Sep-16 01:30N 34°41' E 135°12'0 0.0
2017-Sep-16 01:00N 34°41' E 135°12'0 0.0
2017-Sep-16 00:30N 34°41' E 135°12'0 0.0
2017-Sep-16 00:00N 34°41' E 135°12'0 0.0
2017-Sep-15 23:30N 34°41' E 135°12'0 0.0
2017-Sep-15 23:00N 34°41' E 135°12'0 1.0
2017-Sep-15 22:30N 34°40' E 135°12'917.4
2017-Sep-15 22:00N 34°33' E 135°07'1122.7
2017-Sep-15 21:30N 34°22' E 135°02'1122.4
2017-Sep-15 21:01N 34°12' E 134°58'1223.0
2017-Sep-15 20:30N 33°60' E 134°56'1 0.0
2017-Sep-14 12:23N 33°60' E 134°55'822.6
2017-Sep-14 12:00N 34°08' E 134°58'1222.5
2017-Sep-14 11:28N 34°20' E 134°59'1022.6
2017-Sep-14 11:00N 34°29' E 135°05'1121.1
2017-Sep-14 10:30N 34°38' E 135°11'3 5.7
2017-Sep-14 10:00N 34°41' E 135°12'0 0.0
2017-Sep-14 09:30N 34°41' E 135°12'0 0.0
2017-Sep-14 09:00N 34°41' E 135°12'0 0.0
2017-Sep-14 08:30N 34°41' E 135°12'0 0.0
2017-Sep-14 08:00N 34°41' E 135°12'0 0.0
2017-Sep-14 07:30N 34°41' E 135°12'0 0.0
2017-Sep-14 07:00N 34°41' E 135°12'0 0.0
2017-Sep-14 06:31N 34°41' E 135°12'0 0.0
2017-Sep-14 06:01N 34°41' E 135°12'0 0.0
2017-Sep-14 05:30N 34°41' E 135°12'0 0.0
2017-Sep-14 05:00N 34°41' E 135°12'0 0.0
2017-Sep-14 04:30N 34°41' E 135°12'0 0.0
2017-Sep-14 04:00N 34°41' E 135°12'0 0.0
2017-Sep-14 03:30N 34°41' E 135°12'0 0.0
2017-Sep-14 03:00N 34°41' E 135°12'0 0.0
2017-Sep-14 02:29N 34°41' E 135°12'0 0.0
2017-Sep-14 02:00N 34°41' E 135°12'0 0.0
2017-Sep-14 01:30N 34°41' E 135°12'0 0.0
2017-Sep-14 01:01N 34°41' E 135°12'0 0.0
2017-Sep-14 00:30N 34°41' E 135°12'0 0.0
2017-Sep-14 00:00N 34°41' E 135°12'0 0.0
2017-Sep-13 23:30N 34°41' E 135°12'0 0.0
2017-Sep-13 23:00N 34°41' E 135°12'1 2.8
2017-Sep-13 22:30N 34°40' E 135°11'4 7.6
2017-Sep-13 22:00N 34°36' E 135°11'1020.9
2017-Sep-13 21:30N 34°27' E 135°04'1121.5
2017-Sep-13 21:00N 34°17' E 134°59'1020.9
2017-Sep-13 20:30N 34°07' E 134°57'1221.3
2017-Sep-13 19:58N 33°55' E 134°54'3 0.1
2017-Sep-12 12:48N 33°53' E 134°53'620.5
2017-Sep-12 12:30N 33°59' E 134°54'1020.9
2017-Sep-12 12:00N 34°09' E 134°57'1421.8
2017-Sep-12 11:23N 34°22' E 134°60'822.0
2017-Sep-12 11:00N 34°30' E 135°04'1020.2
2017-Sep-12 10:30N 34°38' E 135°11'3 5.9
2017-Sep-12 10:00N 34°41' E 135°12'0 0.0
2017-Sep-12 09:30N 34°41' E 135°12'0 0.0
2017-Sep-12 09:00N 34°41' E 135°12'0 0.0
2017-Sep-12 08:30N 34°41' E 135°12'0 0.0
2017-Sep-12 08:00N 34°41' E 135°12'0 0.0
2017-Sep-12 07:30N 34°41' E 135°12'0 0.0
2017-Sep-12 07:00N 34°41' E 135°12'0 0.0
2017-Sep-12 06:30N 34°41' E 135°12'0 0.0
2017-Sep-12 06:00N 34°41' E 135°12'0 0.0
2017-Sep-12 05:31N 34°41' E 135°12'0 0.0
2017-Sep-12 05:01N 34°41' E 135°12'0 0.0
2017-Sep-12 04:30N 34°41' E 135°12'0 0.0
2017-Sep-12 04:01N 34°41' E 135°12'0 0.0
2017-Sep-12 03:31N 34°41' E 135°12'0 0.0
2017-Sep-12 03:00N 34°41' E 135°12'0 0.0
2017-Sep-12 02:30N 34°41' E 135°12'0 0.0
2017-Sep-12 02:00N 34°41' E 135°12'0 0.0
2017-Sep-12 01:30N 34°41' E 135°12'0 0.0
2017-Sep-12 01:01N 34°41' E 135°12'0 0.0
2017-Sep-12 00:30N 34°41' E 135°12'0 0.0
2017-Sep-12 00:00N 34°41' E 135°12'0 0.0
2017-Sep-11 23:30N 34°41' E 135°12'0 0.0
2017-Sep-11 23:01N 34°41' E 135°12'0 0.0
2017-Sep-11 22:31N 34°41' E 135°12'2 3.2
2017-Sep-11 22:00N 34°39' E 135°11'917.8
2017-Sep-11 21:30N 34°31' E 135°07'1120.4
2017-Sep-11 20:59N 34°21' E 135°02'919.7
2017-Sep-11 20:30N 34°12' E 134°59'1122.4
2017-Sep-11 20:00N 34°01' E 134°56'  
Track history (hours):
 
Tides and Currents Weather Stations Pressure Air Temp Water Temp Dewpoint Dewpoint Depression Visibility Wind Speed Wind Dir Waves Ship Positions

Kobe Express

Last reported at 2017-Sep-20 12:36 UTC. Time now 2017-Sep-21 03:09 UTC.
Position N 33°58' E 134°56'.

Length 170 m; draft 6.5 m.

Type: Passenger vessel. MMSI: 431301684.

Date/timePositionNaut miles runAvg speedWind from/ knotsBaromVisibWave heightAir tempDewpointWater temp
2017-Sep-20 12:36N 33°58' E 134°56'221.1
2017-Sep-20 12:29N 34°00' E 134°56'1021.0
2017-Sep-20 12:00N 34°11' E 134°57'1019.8
2017-Sep-20 11:30N 34°20' E 134°59'1020.5
2017-Sep-20 11:01N 34°30' E 135°04'1019.4
2017-Sep-20 10:31N 34°37' E 135°11'4 7.0
2017-Sep-20 10:00N 34°41' E 135°12'0 0.0
2017-Sep-20 09:30N 34°41' E 135°12'0 0.0
2017-Sep-20 09:00N 34°41' E 135°12'0 0.0
2017-Sep-20 08:30N 34°41' E 135°12'0 0.0
2017-Sep-20 08:00N 34°41' E 135°12'0 0.0
2017-Sep-20 07:30N 34°41' E 135°12'0 0.0
2017-Sep-20 07:00N 34°41' E 135°12'0 0.0
2017-Sep-20 06:30N 34°41' E 135°12'0 0.0
2017-Sep-20 06:00N 34°41' E 135°12'0 0.0
2017-Sep-20 05:30N 34°41' E 135°12'0 0.0
2017-Sep-20 05:00N 34°41' E 135°12'0 0.0
2017-Sep-20 04:30N 34°41' E 135°12'0 0.0
2017-Sep-20 04:00N 34°41' E 135°12'0 0.0
2017-Sep-20 03:30N 34°41' E 135°12'0 0.0
2017-Sep-20 03:00N 34°41' E 135°12'0 0.0
2017-Sep-20 02:30N 34°41' E 135°12'0 0.0
2017-Sep-20 02:00N 34°41' E 135°12'0 0.0
2017-Sep-20 01:30N 34°41' E 135°12'0 0.0
2017-Sep-20 01:00N 34°41' E 135°12'0 0.0
2017-Sep-20 00:30N 34°41' E 135°12'0 0.0
2017-Sep-20 00:00N 34°41' E 135°12'0 0.0
2017-Sep-19 23:30N 34°41' E 135°12'0 0.0
2017-Sep-19 23:00N 34°41' E 135°12'0 0.0
2017-Sep-19 22:30N 34°41' E 135°12'1 2.4
2017-Sep-19 22:00N 34°40' E 135°12'918.4
2017-Sep-19 21:30N 34°31' E 135°07'1121.9
2017-Sep-19 21:01N 34°21' E 135°02'1122.2
2017-Sep-19 20:30N 34°11' E 134°58'1122.7
2017-Sep-19 20:00N 33°59' E 134°57'2 0.1
2017-Sep-18 12:30N 33°59' E 134°54'1021.2
2017-Sep-18 12:00N 34°09' E 134°56'1120.4
2017-Sep-18 11:29N 34°20' E 134°59'1020.8
2017-Sep-18 11:00N 34°29' E 135°03'1021.0
2017-Sep-18 10:30N 34°38' E 135°10'4 7.2
2017-Sep-18 10:00N 34°41' E 135°12'0 0.0
2017-Sep-18 09:30N 34°41' E 135°12'0 0.0
2017-Sep-18 09:00N 34°41' E 135°12'0 0.0
2017-Sep-18 08:30N 34°41' E 135°12'0 0.0
2017-Sep-18 08:00N 34°41' E 135°12'0 0.0
2017-Sep-18 07:30N 34°41' E 135°12'0 0.0
2017-Sep-18 07:00N 34°41' E 135°12'0 0.0
2017-Sep-18 06:30N 34°41' E 135°12'0 0.0
2017-Sep-18 06:00N 34°41' E 135°12'0 0.0
2017-Sep-18 05:30N 34°41' E 135°12'0 0.0
2017-Sep-18 05:00N 34°41' E 135°12'0 0.0
2017-Sep-18 04:30N 34°41' E 135°12'0 0.0
2017-Sep-18 04:00N 34°41' E 135°12'0 0.0
2017-Sep-18 03:30N 34°41' E 135°12'0 0.0
2017-Sep-18 03:00N 34°41' E 135°12'0 0.0
2017-Sep-18 02:30N 34°41' E 135°12'0 0.0
2017-Sep-18 02:00N 34°41' E 135°12'0 0.0
2017-Sep-18 01:30N 34°41' E 135°12'0 0.0
2017-Sep-18 01:00N 34°41' E 135°12'0 0.0
2017-Sep-18 00:30N 34°41' E 135°12'0 0.0
2017-Sep-18 00:00N 34°41' E 135°12'510.9
2017-Sep-17 23:30N 34°36' E 135°14'4 6.3
2017-Sep-17 22:48N 34°31' E 135°15'0 0.1
2017-Sep-17 22:30N 34°31' E 135°15'0 0.0
2017-Sep-17 22:00N 34°31' E 135°15'0 0.1
2017-Sep-17 21:24N 34°31' E 135°15'0 0.0
2017-Sep-17 21:00N 34°31' E 135°15'0 0.1
2017-Sep-17 20:30N 34°31' E 135°15'0 0.1
2017-Sep-17 20:00N 34°31' E 135°15'0 0.1
2017-Sep-17 19:30N 34°31' E 135°15'0 0.1
2017-Sep-17 19:00N 34°31' E 135°15'0 0.1
2017-Sep-17 18:30N 34°31' E 135°15'0 0.1
2017-Sep-17 18:00N 34°31' E 135°15'0 0.1
2017-Sep-17 17:30N 34°31' E 135°15'0 0.1
2017-Sep-17 17:00N 34°31' E 135°15'0 0.1
2017-Sep-17 16:30N 34°31' E 135°15'0 0.1
2017-Sep-17 16:00N 34°31' E 135°15'0 0.1
2017-Sep-17 15:30N 34°31' E 135°15'0 0.1
2017-Sep-17 15:00N 34°31' E 135°15'0 0.1
2017-Sep-17 14:30N 34°31' E 135°15'0 0.1
2017-Sep-17 14:00N 34°31' E 135°15'0 0.3
2017-Sep-17 13:30N 34°31' E 135°15'0 0.1
2017-Sep-17 12:58N 34°31' E 135°15'0 0.1
2017-Sep-17 12:30N 34°31' E 135°15'0 0.2
2017-Sep-17 11:59N 34°31' E 135°15'0 0.0
2017-Sep-17 11:30N 34°31' E 135°15'0 0.1
2017-Sep-17 11:00N 34°31' E 135°15'0 0.0
2017-Sep-17 10:30N 34°31' E 135°15'0 0.0
2017-Sep-17 10:00N 34°31' E 135°15'0 0.0
2017-Sep-17 09:30N 34°31' E 135°15'0 0.1
2017-Sep-17 08:58N 34°31' E 135°15'0 0.0
2017-Sep-17 08:29N 34°31' E 135°15'0 0.1
2017-Sep-17 08:00N 34°31' E 135°15'0 0.1
2017-Sep-17 07:30N 34°31' E 135°15'0 0.1
2017-Sep-17 06:59N 34°31' E 135°15'0 0.0
2017-Sep-17 06:29N 34°31' E 135°15'0 0.0
2017-Sep-17 05:59N 34°31' E 135°15'0 0.0
2017-Sep-17 05:28N 34°31' E 135°15'0 0.0
2017-Sep-17 04:59N 34°31' E 135°15'0 0.0
2017-Sep-17 04:29N 34°31' E 135°15'0 0.0
2017-Sep-17 03:59N 34°31' E 135°15'0 0.1
2017-Sep-17 03:29N 34°31' E 135°15'0 0.0
2017-Sep-17 02:59N 34°31' E 135°15'0 0.1
2017-Sep-17 02:29N 34°31' E 135°15'0 0.1
2017-Sep-17 01:52N 34°31' E 135°15'0 0.2
2017-Sep-17 01:29N 34°31' E 135°15'0 0.0
2017-Sep-17 01:00N 34°31' E 135°15'0 0.0
2017-Sep-17 00:29N 34°31' E 135°15'0 0.0
2017-Sep-16 23:59N 34°31' E 135°15'0 0.0
2017-Sep-16 23:29N 34°31' E 135°15'0 0.0
2017-Sep-16 23:00N 34°31' E 135°15'0 0.0
2017-Sep-16 22:30N 34°31' E 135°15'0 0.0
2017-Sep-16 22:00N 34°31' E 135°15'0 0.0
2017-Sep-16 21:30N 34°31' E 135°15'0 0.0
2017-Sep-16 21:00N 34°31' E 135°15'0 0.0
2017-Sep-16 20:30N 34°31' E 135°15'0 0.0
2017-Sep-16 20:00N 34°31' E 135°15'0 0.1
2017-Sep-16 19:30N 34°31' E 135°15'0 0.0
2017-Sep-16 19:00N 34°31' E 135°15'0 0.0
2017-Sep-16 18:30N 34°31' E 135°15'0 0.0
2017-Sep-16 18:00N 34°31' E 135°15'0 0.0
2017-Sep-16 17:30N 34°31' E 135°15'0 0.0
2017-Sep-16 17:00N 34°31' E 135°15'0 0.0
2017-Sep-16 16:30N 34°31' E 135°15'0 0.0
2017-Sep-16 16:00N 34°31' E 135°15'0 0.0
2017-Sep-16 15:30N 34°31' E 135°15'0 0.0
2017-Sep-16 15:00N 34°31' E 135°15'0 0.0
2017-Sep-16 14:30N 34°31' E 135°15'0 0.1
2017-Sep-16 14:00N 34°31' E 135°15'0 0.1
2017-Sep-16 13:30N 34°31' E 135°15'0 0.0
2017-Sep-16 13:00N 34°31' E 135°15'0 0.1
2017-Sep-16 12:30N 34°31' E 135°15'0 0.0
2017-Sep-16 12:00N 34°31' E 135°15'0 0.1
2017-Sep-16 11:30N 34°31' E 135°15'0 0.1
2017-Sep-16 11:00N 34°31' E 135°15'0 0.1
2017-Sep-16 10:30N 34°31' E 135°15'0 0.1
2017-Sep-16 10:00N 34°31' E 135°15'0 0.1
2017-Sep-16 09:30N 34°31' E 135°15'0 0.1
2017-Sep-16 09:00N 34°31' E 135°15'0 0.1
2017-Sep-16 08:30N 34°31' E 135°15'0 0.1
2017-Sep-16 08:00N 34°31' E 135°15'0 0.0
2017-Sep-16 07:30N 34°31' E 135°15'0 0.1
2017-Sep-16 07:00N 34°31' E 135°15'3 5.2
2017-Sep-16 06:30N 34°34' E 135°14'714.2
2017-Sep-16 06:00N 34°41' E 135°12'0 0.4
2017-Sep-16 05:30N 34°41' E 135°12'0 0.0
2017-Sep-16 05:00N 34°41' E 135°12'0 0.0
2017-Sep-16 04:30N 34°41' E 135°12'0 0.0
2017-Sep-16 04:00N 34°41' E 135°12'0 0.0
2017-Sep-16 03:30N 34°41' E 135°12'0 0.0
2017-Sep-16 03:00N 34°41' E 135°12'0 0.0
2017-Sep-16 02:30N 34°41' E 135°12'0 0.0
2017-Sep-16 02:00N 34°41' E 135°12'0 0.0
2017-Sep-16 01:30N 34°41' E 135°12'0 0.0
2017-Sep-16 01:00N 34°41' E 135°12'0 0.0
2017-Sep-16 00:30N 34°41' E 135°12'0 0.0
2017-Sep-16 00:00N 34°41' E 135°12'0 0.0
2017-Sep-15 23:30N 34°41' E 135°12'0 0.0
2017-Sep-15 23:00N 34°41' E 135°12'0 1.0
2017-Sep-15 22:30N 34°40' E 135°12'917.4
2017-Sep-15 22:00N 34°33' E 135°07'1122.7
2017-Sep-15 21:30N 34°22' E 135°02'1122.4
2017-Sep-15 21:01N 34°12' E 134°58'1223.0
2017-Sep-15 20:30N 33°60' E 134°56'1 0.0
2017-Sep-14 12:23N 33°60' E 134°55'822.6
2017-Sep-14 12:00N 34°08' E 134°58'1222.5
2017-Sep-14 11:28N 34°20' E 134°59'1022.6
2017-Sep-14 11:00N 34°29' E 135°05'1121.1
2017-Sep-14 10:30N 34°38' E 135°11'3 5.7
2017-Sep-14 10:00N 34°41' E 135°12'0 0.0
2017-Sep-14 09:30N 34°41' E 135°12'0 0.0
2017-Sep-14 09:00N 34°41' E 135°12'0 0.0
2017-Sep-14 08:30N 34°41' E 135°12'0 0.0
2017-Sep-14 08:00N 34°41' E 135°12'0 0.0
2017-Sep-14 07:30N 34°41' E 135°12'0 0.0
2017-Sep-14 07:00N 34°41' E 135°12'0 0.0
2017-Sep-14 06:31N 34°41' E 135°12'0 0.0
2017-Sep-14 06:01N 34°41' E 135°12'0 0.0
2017-Sep-14 05:30N 34°41' E 135°12'0 0.0
2017-Sep-14 05:00N 34°41' E 135°12'0 0.0
2017-Sep-14 04:30N 34°41' E 135°12'0 0.0
2017-Sep-14 04:00N 34°41' E 135°12'0 0.0
2017-Sep-14 03:30N 34°41' E 135°12'0 0.0
2017-Sep-14 03:00N 34°41' E 135°12'0 0.0
2017-Sep-14 02:29N 34°41' E 135°12'0 0.0
2017-Sep-14 02:00N 34°41' E 135°12'0 0.0
2017-Sep-14 01:30N 34°41' E 135°12'0 0.0
2017-Sep-14 01:01N 34°41' E 135°12'0 0.0
2017-Sep-14 00:30N 34°41' E 135°12'0 0.0
2017-Sep-14 00:00N 34°41' E 135°12'0 0.0
2017-Sep-13 23:30N 34°41' E 135°12'0 0.0
2017-Sep-13 23:00N 34°41' E 135°12'1 2.8
2017-Sep-13 22:30N 34°40' E 135°11'4 7.6
2017-Sep-13 22:00N 34°36' E 135°11'1020.9
2017-Sep-13 21:30N 34°27' E 135°04'1121.5
2017-Sep-13 21:00N 34°17' E 134°59'1020.9
2017-Sep-13 20:30N 34°07' E 134°57'1221.3
2017-Sep-13 19:58N 33°55' E 134°54'3 0.1
2017-Sep-12 12:48N 33°53' E 134°53'620.5
2017-Sep-12 12:30N 33°59' E 134°54'1020.9
2017-Sep-12 12:00N 34°09' E 134°57'1421.8
2017-Sep-12 11:23N 34°22' E 134°60'822.0
2017-Sep-12 11:00N 34°30' E 135°04'1020.2
2017-Sep-12 10:30N 34°38' E 135°11'3 5.9
2017-Sep-12 10:00N 34°41' E 135°12'0 0.0
2017-Sep-12 09:30N 34°41' E 135°12'0 0.0
2017-Sep-12 09:00N 34°41' E 135°12'0 0.0
2017-Sep-12 08:30N 34°41' E 135°12'0 0.0
2017-Sep-12 08:00N 34°41' E 135°12'0 0.0
2017-Sep-12 07:30N 34°41' E 135°12'0 0.0
2017-Sep-12 07:00N 34°41' E 135°12'0 0.0
2017-Sep-12 06:30N 34°41' E 135°12'0 0.0
2017-Sep-12 06:00N 34°41' E 135°12'0 0.0
2017-Sep-12 05:31N 34°41' E 135°12'0 0.0
2017-Sep-12 05:01N 34°41' E 135°12'0 0.0
2017-Sep-12 04:30N 34°41' E 135°12'0 0.0
2017-Sep-12 04:01N 34°41' E 135°12'0 0.0
2017-Sep-12 03:31N 34°41' E 135°12'0 0.0
2017-Sep-12 03:00N 34°41' E 135°12'0 0.0
2017-Sep-12 02:30N 34°41' E 135°12'0 0.0
2017-Sep-12 02:00N 34°41' E 135°12'0 0.0
2017-Sep-12 01:30N 34°41' E 135°12'0 0.0
2017-Sep-12 01:01N 34°41' E 135°12'0 0.0
2017-Sep-12 00:30N 34°41' E 135°12'0 0.0
2017-Sep-12 00:00N 34°41' E 135°12'0 0.0
2017-Sep-11 23:30N 34°41' E 135°12'0 0.0
2017-Sep-11 23:01N 34°41' E 135°12'0 0.0
2017-Sep-11 22:31N 34°41' E 135°12'2 3.2
2017-Sep-11 22:00N 34°39' E 135°11'917.8
2017-Sep-11 21:30N 34°31' E 135°07'1120.4
2017-Sep-11 20:59N 34°21' E 135°02'919.7
2017-Sep-11 20:30N 34°12' E 134°59'1122.4
2017-Sep-11 20:00N 34°01' E 134°56'  

Dump ship's entire track history